createdAt,value
2022-08-17T00:00:12.813Z,3.70
2022-08-17T00:03:04.513Z,3.03
2022-08-17T00:05:36.052Z,3.88
2022-08-17T00:08:03.850Z,3.08
2022-08-17T00:10:32.414Z,3.28
2022-08-17T00:13:00.712Z,3.17
2022-08-17T00:15:28.121Z,3.47
2022-08-17T00:17:55.404Z,3.45
2022-08-17T00:20:23.451Z,3.00
2022-08-17T00:23:13.060Z,2.85
2022-08-17T00:25:44.828Z,3.67
2022-08-17T00:28:13.075Z,3.00
2022-08-17T00:30:50.925Z,3.03
2022-08-17T00:33:27.497Z,3.33
2022-08-17T00:35:56.206Z,3.55
2022-08-17T00:38:24.549Z,3.40
2022-08-17T00:40:55.820Z,3.45
2022-08-17T00:45:57.312Z,4.07
2022-08-17T00:48:29.846Z,3.90
2022-08-17T00:51:07.000Z,4.00
2022-08-17T00:53:37.314Z,4.05
2022-08-17T00:56:08.411Z,4.30
2022-08-17T00:58:36.802Z,4.22
2022-08-17T01:01:06.869Z,3.55
2022-08-17T01:03:36.956Z,4.90
2022-08-17T01:06:06.741Z,5.25
2022-08-17T01:08:35.843Z,5.60
2022-08-17T01:11:04.225Z,4.95
2022-08-17T01:13:41.854Z,4.35
2022-08-17T01:16:28.718Z,4.32
2022-08-17T01:19:00.160Z,4.05
2022-08-17T01:21:49.090Z,4.10
2022-08-17T01:24:16.979Z,5.50
2022-08-17T01:26:45.799Z,4.80
2022-08-17T01:29:13.752Z,4.70
2022-08-17T01:31:51.266Z,4.28
2022-08-17T01:34:19.253Z,4.22
2022-08-17T01:36:49.850Z,4.63
2022-08-17T01:39:49.292Z,4.35
2022-08-17T01:42:23.571Z,4.32
2022-08-17T01:44:59.133Z,4.97
2022-08-17T01:47:26.574Z,4.80
2022-08-17T01:49:57.092Z,4.88
2022-08-17T01:52:24.510Z,4.20
2022-08-17T01:54:52.600Z,4.03
2022-08-17T01:57:20.127Z,4.93
2022-08-17T01:59:47.955Z,4.15
2022-08-17T02:02:30.644Z,4.28
2022-08-17T02:04:59.263Z,4.70
2022-08-17T02:07:27.019Z,4.13
2022-08-17T02:09:54.910Z,5.07
2022-08-17T02:12:38.397Z,4.80
2022-08-17T02:17:35.327Z,5.00
2022-08-17T02:20:03.103Z,5.47
2022-08-17T02:22:31.117Z,4.50
2022-08-17T02:25:02.163Z,4.70
2022-08-17T02:27:30.679Z,4.72
2022-08-17T02:29:58.238Z,4.68
2022-08-17T02:32:28.143Z,4.80
2022-08-17T02:35:00.342Z,4.20
2022-08-17T02:37:29.905Z,4.53
2022-08-17T02:39:58.683Z,4.47
2022-08-17T02:42:35.917Z,4.93
2022-08-17T02:45:06.405Z,4.13
2022-08-17T02:47:34.811Z,5.05
2022-08-17T02:50:02.474Z,5.20
2022-08-17T02:52:43.508Z,4.88
2022-08-17T02:55:21.608Z,4.47
2022-08-17T02:57:49.910Z,4.60
2022-08-17T03:00:24.242Z,5.43
2022-08-17T03:02:52.431Z,5.15
2022-08-17T03:05:22.415Z,4.78
2022-08-17T03:07:49.764Z,4.88
2022-08-17T03:10:17.769Z,5.25
2022-08-17T03:12:47.663Z,4.65
2022-08-17T03:15:24.159Z,4.75
2022-08-17T03:17:52.458Z,4.57
2022-08-17T03:20:21.165Z,4.88
2022-08-17T03:22:53.598Z,5.40
2022-08-17T03:25:28.141Z,4.60
2022-08-17T03:27:56.903Z,4.68
2022-08-17T03:30:26.248Z,5.07
2022-08-17T03:32:56.192Z,5.30
2022-08-17T03:35:27.058Z,4.93
2022-08-17T03:38:01.023Z,5.22
2022-08-17T03:40:55.332Z,5.18
2022-08-17T03:43:18.429Z,5.78
2022-08-17T03:46:04.164Z,4.95
2022-08-17T03:48:51.820Z,5.10
2022-08-17T03:51:43.042Z,5.60
2022-08-17T03:54:30.163Z,5.70
2022-08-17T03:57:03.243Z,4.97
2022-08-17T03:59:32.007Z,5.93
2022-08-17T04:02:13.173Z,4.50
2022-08-17T04:04:40.779Z,4.22
2022-08-17T04:07:08.485Z,4.72
2022-08-17T04:09:36.704Z,4.93
2022-08-17T04:12:05.300Z,4.95
2022-08-17T04:14:36.506Z,4.57
2022-08-17T04:17:21.527Z,4.80
2022-08-17T04:19:48.884Z,5.18
2022-08-17T04:22:32.446Z,4.13
2022-08-17T04:25:06.843Z,5.70
2022-08-17T04:27:34.408Z,4.28
2022-08-17T04:30:02.294Z,4.30
2022-08-17T04:33:05.090Z,3.80
2022-08-17T04:35:23.505Z,4.32
2022-08-17T04:37:50.974Z,3.33
2022-08-17T04:40:39.306Z,4.20
2022-08-17T04:43:13.055Z,4.43
2022-08-17T04:45:55.013Z,4.40
2022-08-17T04:48:35.217Z,3.50
2022-08-17T04:51:16.484Z,3.15
2022-08-17T04:53:49.051Z,4.38
2022-08-17T04:56:23.250Z,5.57
2022-08-17T04:58:53.341Z,5.20
2022-08-17T05:01:23.977Z,4.47
2022-08-17T05:03:53.792Z,5.03
2022-08-17T05:06:21.742Z,4.35
2022-08-17T05:08:49.660Z,3.72
2022-08-17T05:11:17.512Z,5.10
2022-08-17T05:13:44.909Z,5.55
2022-08-17T05:16:12.307Z,5.57
2022-08-17T05:18:39.689Z,5.43
2022-08-17T05:21:07.616Z,6.18
2022-08-17T05:23:41.769Z,6.40
2022-08-17T05:26:26.350Z,6.63
2022-08-17T05:29:00.456Z,5.95
2022-08-17T05:31:31.009Z,5.93
2022-08-17T05:33:58.842Z,6.30
2022-08-17T05:36:43.247Z,6.15
2022-08-17T05:39:15.983Z,5.82
2022-08-17T05:41:45.291Z,5.28
2022-08-17T05:44:12.723Z,5.68
2022-08-17T05:46:42.736Z,6.38
2022-08-17T05:49:11.247Z,6.30
2022-08-17T05:52:20.386Z,6.25
2022-08-17T05:55:07.324Z,4.97
2022-08-17T05:57:53.017Z,6.53
2022-08-17T06:00:30.743Z,5.78
2022-08-17T06:03:20.142Z,6.82
2022-08-17T06:06:15.226Z,6.28
2022-08-17T06:09:05.335Z,6.82
2022-08-17T06:11:47.862Z,6.22
2022-08-17T06:14:54.956Z,6.53
2022-08-17T06:17:25.157Z,6.38
2022-08-17T06:20:00.325Z,6.45
2022-08-17T06:22:33.456Z,6.93
2022-08-17T06:25:10.166Z,6.70
2022-08-17T06:27:45.108Z,6.43
2022-08-17T06:30:21.368Z,7.95
2022-08-17T06:32:50.325Z,8.50
2022-08-17T06:35:32.025Z,10.02
2022-08-17T06:38:41.326Z,9.88
2022-08-17T06:41:30.338Z,11.48
2022-08-17T06:44:43.133Z,12.00
2022-08-17T06:47:12.595Z,15.52
2022-08-17T06:49:55.211Z,16.27
2022-08-17T06:52:45.826Z,22.02
2022-08-17T06:55:26.358Z,19.02
2022-08-17T06:57:59.186Z,24.10
2022-08-17T07:00:35.887Z,24.48
2022-08-17T07:03:26.402Z,26.13
2022-08-17T07:08:53.125Z,25.70
2022-08-17T07:11:27.991Z,25.23
2022-08-17T07:13:55.430Z,20.33
2022-08-17T07:16:22.806Z,23.38
2022-08-17T07:18:53.383Z,17.48
2022-08-17T07:21:42.440Z,18.63
2022-08-17T07:24:31.347Z,19.83
2022-08-17T07:27:16.656Z,18.58
2022-08-17T07:29:50.764Z,17.88
2022-08-17T07:32:23.410Z,20.38
2022-08-17T07:35:10.689Z,20.83
2022-08-17T07:37:46.752Z,17.95
2022-08-17T07:40:22.360Z,20.23
2022-08-17T07:43:15.587Z,18.58
2022-08-17T07:46:16.420Z,17.02
2022-08-17T07:48:49.715Z,20.20
2022-08-17T07:51:29.592Z,13.35
2022-08-17T07:54:13.588Z,20.95
2022-08-17T07:57:00.812Z,17.38
2022-08-17T07:59:34.259Z,23.98
2022-08-17T08:02:16.270Z,21.45
2022-08-17T08:05:01.190Z,18.92
2022-08-17T08:07:36.046Z,20.17
2022-08-17T08:10:09.599Z,25.40
2022-08-17T08:12:53.889Z,26.20
2022-08-17T08:15:34.321Z,31.02
2022-08-17T08:18:05.308Z,23.08
2022-08-17T08:20:53.206Z,22.00
2022-08-17T08:23:48.191Z,25.60
2022-08-17T08:26:30.489Z,24.23
2022-08-17T08:29:22.629Z,23.65
2022-08-17T08:32:01.726Z,28.48
2022-08-17T08:35:01.377Z,25.45
2022-08-17T08:37:52.685Z,34.25
2022-08-17T08:40:54.324Z,22.75
2022-08-17T08:43:53.020Z,20.40
2022-08-17T08:46:53.955Z,18.30
2022-08-17T08:50:01.390Z,18.75
2022-08-17T08:52:40.664Z,16.92
2022-08-17T08:55:35.570Z,18.15
2022-08-17T08:58:31.854Z,17.35
2022-08-17T09:01:00.700Z,19.52
2022-08-17T09:03:52.664Z,20.00
2022-08-17T09:06:39.759Z,16.13
2022-08-17T09:09:17.033Z,14.40
2022-08-17T09:12:01.163Z,18.83
2022-08-17T09:14:43.160Z,13.82
2022-08-17T09:17:35.749Z,14.07
2022-08-17T09:20:27.386Z,15.75
2022-08-17T09:23:08.077Z,13.07
2022-08-17T09:25:55.409Z,14.55
2022-08-17T09:28:34.136Z,16.42
2022-08-17T09:31:09.398Z,16.88
2022-08-17T09:33:44.088Z,15.45
2022-08-17T09:36:33.602Z,13.77
2022-08-17T09:39:35.239Z,19.05
2022-08-17T09:42:17.178Z,16.83
2022-08-17T09:45:03.249Z,14.75
2022-08-17T09:47:45.611Z,15.48
2022-08-17T09:50:57.377Z,16.73
2022-08-17T09:53:12.497Z,15.48
2022-08-17T09:55:50.176Z,13.90
2022-08-17T09:58:43.969Z,13.07
2022-08-17T10:01:25.913Z,15.77
2022-08-17T10:04:02.487Z,15.80
2022-08-17T10:06:39.462Z,12.85
2022-08-17T10:09:19.337Z,11.23
2022-08-17T10:12:30.184Z,10.73
2022-08-17T10:15:22.664Z,11.40
2022-08-17T10:18:18.557Z,8.65
2022-08-17T10:21:19.656Z,9.80
2022-08-17T10:24:11.282Z,11.88
2022-08-17T10:26:55.968Z,12.77
2022-08-17T10:29:28.867Z,12.73
2022-08-17T10:32:05.432Z,7.95
2022-08-17T10:34:58.586Z,8.98
2022-08-17T10:37:37.235Z,11.20
2022-08-17T10:40:35.715Z,11.68
2022-08-17T10:43:23.094Z,12.90
2022-08-17T10:46:26.482Z,8.85
2022-08-17T10:49:29.455Z,13.05
2022-08-17T10:52:00.041Z,10.15
2022-08-17T10:54:50.890Z,8.10
2022-08-17T10:57:40.182Z,8.88
2022-08-17T11:00:17.347Z,7.10
2022-08-17T11:02:50.155Z,13.65
2022-08-17T11:05:55.040Z,10.82
2022-08-17T11:09:00.874Z,12.13
2022-08-17T11:12:06.952Z,11.57
2022-08-17T11:15:19.807Z,11.15
2022-08-17T11:17:55.381Z,10.18
2022-08-17T11:20:44.485Z,9.15
2022-08-17T11:23:30.427Z,8.23
2022-08-17T11:26:04.163Z,6.85
2022-08-17T11:28:52.815Z,6.93
2022-08-17T11:31:39.117Z,9.15
2022-08-17T11:34:28.491Z,7.15
2022-08-17T11:37:29.747Z,6.80
2022-08-17T11:40:15.427Z,7.88
2022-08-17T11:42:49.715Z,7.43
2022-08-17T11:45:45.455Z,8.90
2022-08-17T11:49:06.116Z,8.35
2022-08-17T11:52:12.235Z,8.10
2022-08-17T11:54:48.276Z,7.93
2022-08-17T11:57:29.478Z,6.80
2022-08-17T12:00:13.055Z,6.28
2022-08-17T12:02:49.127Z,6.18
2022-08-17T12:05:25.439Z,4.93
2022-08-17T12:07:55.864Z,5.80
2022-08-17T12:10:32.437Z,7.28
2022-08-17T12:13:06.307Z,4.65
2022-08-17T12:15:42.624Z,5.03
2022-08-17T12:18:29.154Z,3.80
2022-08-17T12:21:21.635Z,5.88
2022-08-17T12:23:56.211Z,5.40
2022-08-17T12:26:33.461Z,4.40
2022-08-17T12:29:35.727Z,6.47
2022-08-17T12:32:07.243Z,5.00
2022-08-17T12:34:40.811Z,5.32
2022-08-17T12:37:20.698Z,4.50
2022-08-17T12:39:58.751Z,4.28
2022-08-17T12:42:34.845Z,4.75
2022-08-17T12:45:02.461Z,5.32
2022-08-17T12:47:31.937Z,5.03
2022-08-17T12:50:29.239Z,4.60
2022-08-17T12:53:01.969Z,5.55
2022-08-17T12:55:36.081Z,4.40
2022-08-17T12:58:04.255Z,4.55
2022-08-17T13:00:33.341Z,4.45
2022-08-17T13:03:02.805Z,4.95
2022-08-17T13:05:39.582Z,6.15
2022-08-17T13:08:20.075Z,4.53
2022-08-17T13:11:03.779Z,6.72
2022-08-17T13:13:34.749Z,6.35
2022-08-17T13:16:24.875Z,6.28
2022-08-17T13:19:15.550Z,6.63
2022-08-17T13:21:50.025Z,6.63
2022-08-17T13:24:30.947Z,5.25
2022-08-17T13:27:12.065Z,4.10
2022-08-17T13:29:51.159Z,3.20
2022-08-17T13:32:31.182Z,3.88
2022-08-17T13:35:13.811Z,4.30
2022-08-17T13:38:07.827Z,3.92
2022-08-17T13:40:53.339Z,4.70
2022-08-17T13:43:39.514Z,4.18
2022-08-17T13:46:22.527Z,4.50
2022-08-17T13:49:02.929Z,5.03
2022-08-17T13:51:41.667Z,3.10
2022-08-17T13:54:22.405Z,4.25
2022-08-17T13:57:00.407Z,3.47
2022-08-17T13:59:54.546Z,4.50
2022-08-17T14:02:26.009Z,4.05
2022-08-17T14:04:56.738Z,5.88
2022-08-17T14:07:29.953Z,4.78
2022-08-17T14:10:04.919Z,4.57
2022-08-17T14:12:34.849Z,2.83
2022-08-17T14:15:02.875Z,4.35
2022-08-17T14:17:35.066Z,4.10
2022-08-17T14:20:10.537Z,4.68
2022-08-17T14:22:43.405Z,7.38
2022-08-17T14:25:13.586Z,5.25
2022-08-17T14:27:51.819Z,4.80
2022-08-17T14:30:26.716Z,3.67
2022-08-17T14:32:58.289Z,3.63
2022-08-17T14:35:28.282Z,3.10
2022-08-17T14:37:56.510Z,3.42
2022-08-17T14:40:25.373Z,3.70
2022-08-17T14:42:55.351Z,2.90
2022-08-17T14:45:32.227Z,4.30
2022-08-17T14:48:07.790Z,3.90
2022-08-17T14:50:39.110Z,3.83
2022-08-17T14:53:09.436Z,2.80
2022-08-17T14:55:40.040Z,3.42
2022-08-17T14:58:09.191Z,4.68
2022-08-17T15:00:37.395Z,3.17
2022-08-17T15:03:05.578Z,2.63
2022-08-17T15:05:39.668Z,2.85
2022-08-17T15:08:07.695Z,2.58
2022-08-17T15:10:35.817Z,2.17
2022-08-17T15:13:03.843Z,2.70
2022-08-17T15:15:31.735Z,1.90
2022-08-17T15:18:00.082Z,2.28
2022-08-17T15:20:30.273Z,2.75
2022-08-17T15:22:59.484Z,3.20
2022-08-17T15:25:29.066Z,3.58
2022-08-17T15:27:57.190Z,3.33
2022-08-17T15:30:26.187Z,2.92
2022-08-17T15:32:55.730Z,3.42
2022-08-17T15:35:28.213Z,3.20
2022-08-17T15:37:58.259Z,5.55
2022-08-17T15:40:25.902Z,5.63
2022-08-17T15:42:53.587Z,6.10
2022-08-17T15:45:24.998Z,7.30
2022-08-17T15:47:53.434Z,6.15
2022-08-17T15:50:21.314Z,5.05
2022-08-17T15:52:58.142Z,4.03
2022-08-17T15:55:27.499Z,4.18
2022-08-17T15:57:55.468Z,2.72
2022-08-17T16:00:28.330Z,4.10
2022-08-17T16:03:45.876Z,3.08
2022-08-17T16:05:45.329Z,2.72
2022-08-17T16:08:20.017Z,2.20
2022-08-17T16:10:50.397Z,1.77
2022-08-17T16:13:19.464Z,1.90
2022-08-17T16:15:57.019Z,2.05
2022-08-17T16:18:32.069Z,2.05
2022-08-17T16:21:21.823Z,1.45
2022-08-17T16:23:51.616Z,1.00
2022-08-17T16:26:20.000Z,1.50
2022-08-17T16:28:47.798Z,0.90
2022-08-17T16:31:17.325Z,1.00
2022-08-17T16:34:16.232Z,1.25
2022-08-17T16:36:33.149Z,1.00
2022-08-17T16:39:01.612Z,0.80
2022-08-17T16:41:44.592Z,0.95
2022-08-17T16:44:15.594Z,1.83
2022-08-17T16:46:45.433Z,1.10
2022-08-17T16:49:31.559Z,1.30
2022-08-17T16:52:03.463Z,1.05
2022-08-17T16:54:30.998Z,1.65
2022-08-17T16:56:58.606Z,0.98
2022-08-17T16:59:31.337Z,1.58
2022-08-17T17:02:11.419Z,1.10
2022-08-17T17:05:23.618Z,1.20
2022-08-17T17:08:16.143Z,1.75
2022-08-17T17:10:48.286Z,1.77
2022-08-17T17:13:30.625Z,2.28
2022-08-17T17:16:19.547Z,1.20
2022-08-17T17:19:01.876Z,1.35
2022-08-17T17:22:00.189Z,2.80
2022-08-17T17:24:49.610Z,1.58
2022-08-17T17:27:40.337Z,3.03
2022-08-17T17:30:24.437Z,2.33
2022-08-17T17:32:59.238Z,1.90
2022-08-17T17:35:47.187Z,3.92
2022-08-17T17:38:34.592Z,2.50
2022-08-17T17:41:07.665Z,2.47
2022-08-17T17:43:39.709Z,3.00
2022-08-17T17:46:26.565Z,2.60
2022-08-17T17:48:56.408Z,2.53
2022-08-17T17:52:02.839Z,2.78
2022-08-17T17:55:01.282Z,3.65
2022-08-17T17:57:49.678Z,2.78
2022-08-17T18:00:45.402Z,2.58
2022-08-17T18:03:56.061Z,2.75
2022-08-17T18:06:51.931Z,2.58
2022-08-17T18:09:33.904Z,2.97
2022-08-17T18:12:12.071Z,2.85
2022-08-17T18:15:20.077Z,2.65
2022-08-17T18:18:15.732Z,2.78
2022-08-17T18:20:54.053Z,2.05
2022-08-17T18:23:28.587Z,3.28
2022-08-17T18:25:58.828Z,2.80
2022-08-17T18:28:37.005Z,4.28
2022-08-17T18:31:13.056Z,3.30
2022-08-17T18:33:44.687Z,3.67
2022-08-17T18:36:13.402Z,3.58
2022-08-17T18:38:43.484Z,3.17
2022-08-17T18:41:27.387Z,4.07
2022-08-17T18:44:16.321Z,2.22
2022-08-17T18:46:44.262Z,4.10
2022-08-17T18:49:27.909Z,4.10
2022-08-17T18:52:21.695Z,4.60
2022-08-17T18:55:13.165Z,4.25
2022-08-17T18:57:49.835Z,3.83
2022-08-17T19:00:19.251Z,4.00
2022-08-17T19:02:56.538Z,3.83
2022-08-17T19:05:42.489Z,3.75
2022-08-17T19:08:19.232Z,3.92
2022-08-17T19:10:51.782Z,3.53
2022-08-17T19:13:40.239Z,3.20
2022-08-17T19:16:15.705Z,3.60
2022-08-17T19:18:52.898Z,2.35
2022-08-17T19:21:39.443Z,2.63
2022-08-17T19:24:30.157Z,2.90
2022-08-17T19:27:12.445Z,3.22
2022-08-17T19:29:47.491Z,2.75
2022-08-17T19:32:18.588Z,2.30
2022-08-17T19:34:46.721Z,2.25
2022-08-17T19:37:32.654Z,3.00
2022-08-17T19:40:51.805Z,3.28
2022-08-17T19:43:27.446Z,2.50
2022-08-17T19:46:06.056Z,2.50
2022-08-17T19:49:03.541Z,3.33
2022-08-17T19:51:36.314Z,3.05
2022-08-17T19:54:16.496Z,2.63
2022-08-17T19:57:12.497Z,2.67
2022-08-17T19:59:57.844Z,2.95
2022-08-17T20:02:51.356Z,4.03
2022-08-17T20:06:01.414Z,3.63
2022-08-17T20:08:40.021Z,3.28
2022-08-17T20:11:21.471Z,3.15
2022-08-17T20:14:01.252Z,3.50
2022-08-17T20:16:29.000Z,3.42
2022-08-17T20:19:01.644Z,2.47
2022-08-17T20:21:54.218Z,2.42
2022-08-17T20:24:36.838Z,3.03
2022-08-17T20:27:19.119Z,3.25
2022-08-17T20:30:06.562Z,2.83
2022-08-17T20:32:35.950Z,3.67
2022-08-17T20:35:10.547Z,2.47
2022-08-17T20:37:44.471Z,3.45
2022-08-17T20:40:21.021Z,2.33
2022-08-17T20:42:48.961Z,3.00
2022-08-17T20:45:23.979Z,2.92
2022-08-17T20:48:20.072Z,3.25
2022-08-17T20:50:51.641Z,3.08
2022-08-17T20:56:50.045Z,2.25
2022-08-17T21:02:17.448Z,2.92
2022-08-17T21:04:55.236Z,3.35
2022-08-17T21:07:29.382Z,3.05
2022-08-17T21:10:24.069Z,4.40
2022-08-17T21:13:13.782Z,3.60
2022-08-17T21:16:01.208Z,3.30
2022-08-17T21:18:45.914Z,3.47
2022-08-17T21:21:40.466Z,3.08
2022-08-17T21:24:32.633Z,3.27
2022-08-17T21:27:18.131Z,2.40
2022-08-17T21:30:21.107Z,3.25
2022-08-17T21:33:18.955Z,2.47
2022-08-17T21:36:16.394Z,2.70
2022-08-17T21:38:57.450Z,3.20
2022-08-17T21:42:01.146Z,3.00
2022-08-17T21:44:40.123Z,3.63
2022-08-17T21:47:27.817Z,2.80
2022-08-17T21:49:56.799Z,3.63
2022-08-17T21:52:27.885Z,4.13
2022-08-17T21:54:58.672Z,3.10
2022-08-17T21:57:29.204Z,3.78
2022-08-17T22:00:00.303Z,2.83
2022-08-17T22:02:38.251Z,2.58
2022-08-17T22:05:13.380Z,3.35
2022-08-17T22:07:50.752Z,3.50
2022-08-17T22:10:41.191Z,3.17
2022-08-17T22:13:18.372Z,2.67
2022-08-17T22:15:51.419Z,3.17
2022-08-17T22:18:27.090Z,5.68
2022-08-17T22:20:58.072Z,3.67
2022-08-17T22:23:51.722Z,3.05
2022-08-17T22:26:23.121Z,3.20
2022-08-17T22:28:56.786Z,4.13
2022-08-17T22:31:29.962Z,4.10
2022-08-17T22:34:00.490Z,2.92
2022-08-17T22:36:33.832Z,4.68
2022-08-17T22:39:10.373Z,3.65
2022-08-17T22:41:50.813Z,3.95
2022-08-17T22:44:27.680Z,3.80
2022-08-17T22:47:21.564Z,3.13
2022-08-17T22:49:58.372Z,3.75
2022-08-17T22:53:01.600Z,3.40
2022-08-17T22:55:50.394Z,3.17
2022-08-17T22:58:43.850Z,3.97
2022-08-17T23:01:33.563Z,3.45
2022-08-17T23:04:31.666Z,3.33
2022-08-17T23:06:59.560Z,3.15
2022-08-17T23:09:28.125Z,2.08
2022-08-17T23:11:59.888Z,2.30
2022-08-17T23:14:32.198Z,2.35
2022-08-17T23:17:01.074Z,2.25
2022-08-17T23:19:31.903Z,2.15
2022-08-17T23:22:04.482Z,2.42
2022-08-17T23:24:35.940Z,2.63
2022-08-17T23:27:07.981Z,2.17
2022-08-17T23:29:39.590Z,1.83
2022-08-17T23:32:10.124Z,1.38
2022-08-17T23:34:40.493Z,2.42
2022-08-17T23:37:09.964Z,1.67
2022-08-17T23:39:39.592Z,2.20
2022-08-17T23:42:11.048Z,2.65
2022-08-17T23:44:40.149Z,2.13
2022-08-17T23:47:09.135Z,1.60
2022-08-17T23:49:37.547Z,1.33
2022-08-17T23:52:10.159Z,2.15
2022-08-17T23:54:43.944Z,1.50
2022-08-17T23:57:14.979Z,2.70
2022-08-17T23:59:44.174Z,2.50
